createdAt,value
2022-07-26T00:03:08.692Z,7.25
2022-07-26T00:07:23.844Z,7.35
2022-07-26T00:11:37.599Z,7.90
2022-07-26T00:15:52.318Z,7.72
2022-07-26T00:20:07.477Z,7.82
2022-07-26T00:24:22.713Z,7.30
2022-07-26T00:28:36.609Z,7.78
2022-07-26T00:32:50.660Z,7.22
2022-07-26T00:37:04.529Z,7.43
2022-07-26T00:41:20.121Z,7.57
2022-07-26T00:45:33.894Z,7.38
2022-07-26T00:49:47.698Z,7.00
2022-07-26T00:54:01.580Z,6.87
2022-07-26T00:58:20.083Z,6.93
2022-07-26T01:02:33.896Z,6.80
2022-07-26T01:06:49.746Z,6.90
2022-07-26T01:11:03.842Z,7.30
2022-07-26T01:15:20.185Z,6.70
2022-07-26T01:19:33.945Z,6.85
2022-07-26T01:23:49.987Z,6.83
2022-07-26T01:28:04.828Z,7.00
2022-07-26T01:32:18.716Z,7.30
2022-07-26T01:36:32.626Z,7.33
2022-07-26T01:40:47.827Z,6.88
2022-07-26T01:45:01.697Z,6.75
2022-07-26T01:49:15.691Z,6.30
2022-07-26T01:53:29.598Z,6.35
2022-07-26T01:57:46.020Z,6.53
2022-07-26T02:01:59.948Z,6.72
2022-07-26T02:06:14.110Z,6.47
2022-07-26T02:10:49.974Z,6.40
2022-07-26T02:15:05.995Z,6.85
2022-07-26T02:19:19.675Z,7.13
2022-07-26T02:23:33.684Z,6.43
2022-07-26T02:27:47.370Z,7.03
2022-07-26T02:32:02.544Z,7.70
2022-07-26T02:36:16.368Z,7.50
2022-07-26T02:40:30.540Z,7.38
2022-07-26T02:44:44.242Z,7.80
2022-07-26T02:48:59.755Z,7.80
2022-07-26T02:53:13.624Z,8.52
2022-07-26T02:57:27.473Z,7.88
2022-07-26T03:01:41.233Z,7.77
2022-07-26T03:05:56.563Z,7.60
2022-07-26T03:10:10.997Z,6.75
2022-07-26T03:14:24.688Z,6.17
2022-07-26T03:18:38.967Z,5.57
2022-07-26T03:22:54.038Z,5.47
2022-07-26T03:27:07.798Z,5.55
2022-07-26T03:31:23.462Z,5.20
2022-07-26T03:35:37.348Z,5.22
2022-07-26T03:39:52.471Z,5.15
2022-07-26T03:44:06.986Z,4.97
2022-07-26T03:48:20.978Z,4.82
2022-07-26T03:52:35.109Z,4.95
2022-07-26T03:56:50.375Z,4.70
2022-07-26T04:01:04.264Z,5.15
2022-07-26T04:05:21.747Z,4.72
2022-07-26T04:09:37.768Z,4.70
2022-07-26T04:13:52.861Z,4.50
2022-07-26T04:18:06.628Z,4.35
2022-07-26T04:22:20.755Z,4.38
2022-07-26T04:26:34.649Z,4.83
2022-07-26T04:30:50.440Z,3.72
2022-07-26T04:35:04.265Z,3.90
2022-07-26T04:39:24.400Z,4.00
2022-07-26T04:43:38.193Z,3.95
2022-07-26T04:47:53.642Z,3.55
2022-07-26T04:52:07.737Z,3.83
2022-07-26T04:56:21.539Z,3.83
2022-07-26T05:00:56.475Z,3.72
2022-07-26T05:05:10.937Z,3.80
2022-07-26T05:09:24.665Z,3.63
2022-07-26T05:13:38.520Z,4.10
2022-07-26T05:17:52.274Z,3.38
2022-07-26T05:22:07.384Z,3.70
2022-07-26T05:26:21.220Z,3.13
2022-07-26T05:30:35.121Z,3.00
2022-07-26T05:34:49.003Z,2.85
2022-07-26T05:39:04.392Z,3.00
2022-07-26T05:43:18.257Z,3.10
2022-07-26T05:47:31.989Z,2.63
2022-07-26T05:51:45.936Z,2.70
2022-07-26T05:56:01.808Z,2.60
2022-07-26T06:00:16.197Z,2.78
2022-07-26T06:04:30.016Z,2.77
2022-07-26T06:08:43.852Z,3.03
2022-07-26T06:13:00.677Z,2.75
2022-07-26T06:17:14.553Z,2.63
2022-07-26T06:21:28.311Z,2.30
2022-07-26T06:25:42.345Z,2.50
2022-07-26T06:29:57.741Z,2.45
2022-07-26T06:34:11.952Z,2.77
2022-07-26T06:38:26.068Z,2.70
2022-07-26T06:42:40.209Z,2.55
2022-07-26T06:46:55.446Z,2.57
2022-07-26T06:51:10.199Z,2.65
2022-07-26T06:55:24.250Z,2.60
2022-07-26T06:59:38.825Z,2.40
2022-07-26T07:03:54.506Z,2.03
2022-07-26T07:08:08.357Z,2.10
2022-07-26T07:12:24.121Z,2.20
2022-07-26T07:16:37.914Z,2.13
2022-07-26T07:20:53.044Z,2.40
2022-07-26T07:25:07.417Z,2.50
2022-07-26T07:29:22.708Z,2.30
2022-07-26T07:33:52.574Z,2.10
2022-07-26T07:38:09.545Z,2.20
2022-07-26T07:42:23.280Z,1.80
2022-07-26T07:46:37.112Z,1.90
2022-07-26T07:50:50.887Z,1.98
2022-07-26T07:55:37.025Z,10.02
2022-07-26T07:59:42.777Z,4.70
2022-07-26T08:03:56.527Z,2.70
2022-07-26T08:08:10.282Z,2.15
2022-07-26T08:12:25.372Z,2.00
2022-07-26T08:16:39.220Z,1.88
2022-07-26T08:20:54.794Z,1.77
2022-07-26T08:25:09.583Z,1.85
2022-07-26T08:29:24.691Z,2.00
2022-07-26T08:33:40.965Z,2.10
2022-07-26T08:37:59.782Z,2.53
2022-07-26T08:42:17.602Z,1.60
2022-07-26T08:46:40.484Z,1.70
2022-07-26T08:50:55.721Z,1.70
2022-07-26T08:55:10.305Z,1.80
2022-07-26T08:59:24.573Z,1.90
2022-07-26T09:03:40.749Z,1.75
2022-07-26T09:07:54.575Z,1.85
2022-07-26T09:12:19.645Z,2.17
2022-07-26T09:16:38.740Z,1.70
2022-07-26T09:20:54.907Z,1.90
2022-07-26T09:25:22.517Z,1.90
2022-07-26T09:29:47.226Z,1.60
2022-07-26T09:34:00.993Z,1.60
2022-07-26T09:38:16.933Z,1.60
2022-07-26T09:42:30.952Z,1.80
2022-07-26T09:46:53.812Z,1.80
2022-07-26T09:51:07.943Z,1.70
2022-07-26T09:55:23.462Z,1.67
2022-07-26T09:59:40.798Z,1.85
2022-07-26T10:03:54.903Z,1.70
2022-07-26T10:08:09.367Z,1.80
2022-07-26T10:12:30.666Z,1.70
2022-07-26T10:16:44.515Z,1.80
2022-07-26T10:20:58.369Z,2.03
2022-07-26T10:25:46.687Z,1.80
2022-07-26T10:30:33.899Z,1.80
2022-07-26T10:34:49.332Z,1.90
2022-07-26T10:39:12.263Z,1.40
2022-07-26T10:43:42.911Z,1.85
2022-07-26T10:48:15.953Z,1.52
2022-07-26T10:52:31.343Z,2.00
2022-07-26T10:56:45.008Z,1.77
2022-07-26T11:01:00.902Z,1.70
2022-07-26T11:05:17.622Z,1.90
2022-07-26T11:09:35.590Z,1.85
2022-07-26T11:13:49.278Z,2.00
2022-07-26T11:18:14.749Z,2.20
2022-07-26T11:22:33.967Z,2.47
2022-07-26T11:26:48.442Z,2.30
2022-07-26T11:31:03.729Z,2.50
2022-07-26T11:35:17.620Z,2.60
2022-07-26T11:39:34.453Z,2.22
2022-07-26T11:43:48.963Z,2.30
2022-07-26T11:48:02.774Z,2.00
2022-07-26T11:52:24.901Z,2.35
2022-07-26T11:56:40.630Z,2.17
2022-07-26T12:00:54.423Z,2.20
2022-07-26T12:05:16.147Z,1.97
2022-07-26T12:09:32.410Z,2.10
2022-07-26T12:13:55.620Z,1.90
2022-07-26T12:18:10.010Z,2.47
2022-07-26T12:22:25.004Z,2.60
2022-07-26T12:26:39.565Z,2.70
2022-07-26T12:30:57.788Z,2.70
2022-07-26T12:35:14.446Z,2.70
2022-07-26T12:39:28.613Z,2.90
2022-07-26T12:43:42.621Z,2.88
2022-07-26T12:48:11.899Z,3.03
2022-07-26T12:52:26.062Z,3.00
2022-07-26T12:56:40.074Z,2.60
2022-07-26T13:00:54.100Z,3.10
2022-07-26T13:05:10.999Z,3.20
2022-07-26T13:09:30.875Z,3.28
2022-07-26T13:13:44.937Z,3.03
2022-07-26T13:17:58.720Z,2.83
2022-07-26T13:22:13.805Z,2.90
2022-07-26T13:26:27.563Z,2.70
2022-07-26T13:30:43.490Z,3.07
2022-07-26T13:34:57.404Z,2.63
2022-07-26T13:39:12.568Z,3.78
2022-07-26T13:43:26.472Z,3.50
2022-07-26T13:47:40.415Z,3.33
2022-07-26T13:52:01.180Z,3.30
2022-07-26T13:56:16.345Z,3.70
2022-07-26T14:00:31.011Z,3.33
2022-07-26T14:04:45.184Z,3.25
2022-07-26T14:08:59.153Z,3.03
2022-07-26T14:13:14.434Z,2.77
2022-07-26T14:17:28.172Z,3.03
2022-07-26T14:21:58.960Z,2.80
2022-07-26T14:26:14.714Z,2.77
2022-07-26T14:30:29.943Z,3.13
2022-07-26T14:34:43.988Z,2.75
2022-07-26T14:38:57.729Z,2.67
2022-07-26T14:43:11.504Z,3.28
2022-07-26T14:47:28.792Z,3.00
2022-07-26T14:51:42.687Z,3.17
2022-07-26T14:55:56.423Z,2.90
2022-07-26T15:00:13.598Z,3.40
2022-07-26T15:04:28.790Z,3.15
2022-07-26T15:08:42.613Z,3.03
2022-07-26T15:12:56.889Z,2.72
2022-07-26T15:17:11.222Z,2.95
2022-07-26T15:21:29.030Z,2.70
2022-07-26T15:25:42.892Z,3.13
2022-07-26T15:30:02.844Z,3.00
2022-07-26T15:34:18.964Z,2.78
2022-07-26T15:38:34.216Z,2.60
2022-07-26T15:42:50.494Z,2.80
2022-07-26T15:47:04.406Z,2.60
2022-07-26T15:51:18.318Z,2.70
2022-07-26T15:55:33.625Z,2.65
2022-07-26T15:59:47.288Z,2.90
2022-07-26T16:04:01.149Z,3.10
2022-07-26T16:08:15.154Z,2.88
2022-07-26T16:12:30.939Z,2.70
2022-07-26T16:16:45.089Z,2.50
2022-07-26T16:20:58.989Z,2.60
2022-07-26T16:25:13.907Z,2.55
2022-07-26T16:29:29.306Z,2.83
2022-07-26T16:33:46.517Z,2.60
2022-07-26T16:38:00.766Z,2.72
2022-07-26T16:42:15.400Z,2.50
2022-07-26T16:46:30.702Z,2.53
2022-07-26T16:50:44.533Z,2.50
2022-07-26T16:54:58.331Z,2.83
2022-07-26T16:59:14.121Z,2.70
2022-07-26T17:03:29.750Z,2.70
2022-07-26T17:07:43.667Z,2.72
2022-07-26T17:11:57.352Z,3.00
2022-07-26T17:16:11.149Z,2.80
2022-07-26T17:20:27.241Z,2.65
2022-07-26T17:24:41.017Z,2.40
2022-07-26T17:28:54.669Z,2.43
2022-07-26T17:33:08.530Z,2.50
2022-07-26T17:37:23.757Z,2.58
2022-07-26T17:41:37.598Z,2.33
2022-07-26T17:45:54.294Z,2.37
2022-07-26T17:54:45.883Z,2.50
2022-07-26T17:58:59.691Z,2.80
2022-07-26T18:03:13.474Z,2.55
2022-07-26T18:07:27.498Z,2.50
2022-07-26T18:11:42.951Z,2.27
2022-07-26T18:15:57.459Z,2.47
2022-07-26T18:20:12.482Z,2.10
2022-07-26T18:24:26.941Z,2.00
2022-07-26T18:28:41.986Z,1.80
2022-07-26T18:33:00.692Z,1.73
2022-07-26T18:37:14.429Z,1.75
2022-07-26T18:41:29.259Z,1.97
2022-07-26T18:45:45.997Z,1.50
2022-07-26T18:49:59.768Z,1.60
2022-07-26T18:54:13.534Z,1.70
2022-07-26T18:58:28.549Z,1.80
2022-07-26T19:02:45.346Z,1.60
2022-07-26T19:06:59.086Z,1.50
2022-07-26T19:11:12.792Z,1.70
2022-07-26T19:15:26.658Z,1.70
2022-07-26T19:19:42.944Z,1.60
2022-07-26T19:23:56.854Z,1.57
2022-07-26T19:28:10.583Z,1.58
2022-07-26T19:32:24.686Z,1.70
2022-07-26T19:36:39.979Z,1.73
2022-07-26T19:40:55.259Z,1.80
2022-07-26T19:45:09.731Z,1.77
2022-07-26T19:49:23.474Z,1.80
2022-07-26T19:53:38.607Z,1.90
2022-07-26T19:57:52.460Z,1.70
2022-07-26T20:02:06.652Z,1.77
2022-07-26T20:06:20.810Z,2.00
2022-07-26T20:10:36.076Z,1.60
2022-07-26T20:14:49.816Z,1.77
2022-07-26T20:19:03.594Z,1.80
2022-07-26T20:23:17.346Z,1.90
2022-07-26T20:27:32.695Z,1.70
2022-07-26T20:31:46.622Z,2.00
2022-07-26T20:36:00.473Z,1.93
2022-07-26T20:40:15.508Z,1.90
2022-07-26T20:44:33.828Z,1.90
2022-07-26T20:48:48.314Z,2.57
2022-07-26T20:53:02.250Z,1.88
2022-07-26T20:57:15.989Z,1.50
2022-07-26T21:01:31.903Z,1.70
2022-07-26T21:05:45.992Z,2.03
2022-07-26T21:09:59.636Z,1.92
2022-07-26T21:14:13.362Z,1.80
2022-07-26T21:18:29.916Z,1.60
2022-07-26T21:22:43.958Z,1.83
2022-07-26T21:26:57.672Z,2.15
2022-07-26T21:31:11.405Z,2.20
2022-07-26T21:35:26.677Z,1.80
2022-07-26T21:39:40.398Z,2.00
2022-07-26T21:43:54.202Z,2.00
2022-07-26T21:48:08.349Z,1.80
2022-07-26T21:52:23.433Z,1.70
2022-07-26T21:56:37.125Z,2.10
2022-07-26T22:00:50.903Z,2.03
2022-07-26T22:05:24.975Z,2.00
2022-07-26T22:09:40.323Z,1.90
2022-07-26T22:13:54.155Z,1.90
2022-07-26T22:18:09.846Z,1.75
2022-07-26T22:22:23.844Z,2.40
2022-07-26T22:26:41.138Z,1.77
2022-07-26T22:30:55.251Z,2.00
2022-07-26T22:35:09.856Z,1.92
2022-07-26T22:39:23.725Z,1.90
2022-07-26T22:43:39.167Z,1.63
2022-07-26T22:47:56.487Z,1.80
2022-07-26T22:52:10.376Z,1.67
2022-07-26T22:56:24.094Z,1.97
2022-07-26T23:00:39.222Z,1.40
2022-07-26T23:04:53.002Z,1.90
2022-07-26T23:09:06.743Z,1.80
2022-07-26T23:13:20.449Z,1.77
2022-07-26T23:17:35.607Z,1.80
2022-07-26T23:21:51.181Z,1.90
2022-07-26T23:26:04.944Z,1.57
2022-07-26T23:30:18.666Z,2.00
2022-07-26T23:34:33.796Z,1.90
2022-07-26T23:38:47.471Z,1.80
2022-07-26T23:43:01.151Z,1.98
2022-07-26T23:47:14.987Z,1.70
2022-07-26T23:51:30.147Z,1.83
2022-07-26T23:55:43.876Z,1.90
